createdAt,value
2022-12-22T00:00:23.384Z,1.63
2022-12-22T00:03:09.760Z,1.80
2022-12-22T00:05:55.731Z,1.58
2022-12-22T00:08:41.459Z,1.98
2022-12-22T00:11:31.189Z,2.28
2022-12-22T00:14:17.606Z,1.90
2022-12-22T00:17:04.439Z,1.70
2022-12-22T00:19:50.284Z,1.80
2022-12-22T00:22:39.663Z,1.90
2022-12-22T00:25:26.215Z,1.65
2022-12-22T00:28:12.303Z,1.77
2022-12-22T00:31:00.599Z,1.50
2022-12-22T00:33:46.312Z,1.60
2022-12-22T00:36:33.212Z,2.03
2022-12-22T00:39:19.526Z,1.65
2022-12-22T00:42:05.401Z,1.77
2022-12-22T00:44:50.996Z,2.20
2022-12-22T00:47:45.924Z,2.20
2022-12-22T00:50:32.592Z,2.10
2022-12-22T00:53:19.617Z,1.92
2022-12-22T00:56:05.396Z,1.90
2022-12-22T00:58:51.637Z,2.10
2022-12-22T01:01:37.674Z,1.77
2022-12-22T01:04:23.904Z,2.05
2022-12-22T01:07:10.114Z,2.00
2022-12-22T01:09:56.211Z,2.45
2022-12-22T01:12:45.711Z,1.70
2022-12-22T01:15:36.496Z,1.90
2022-12-22T01:18:23.839Z,2.03
2022-12-22T01:21:11.090Z,2.60
2022-12-22T01:23:58.415Z,3.20
2022-12-22T01:26:44.724Z,3.10
2022-12-22T01:29:30.502Z,2.30
2022-12-22T01:32:16.826Z,1.80
2022-12-22T01:35:02.568Z,2.03
2022-12-22T01:37:50.111Z,2.20
2022-12-22T01:40:43.894Z,1.88
2022-12-22T01:43:43.926Z,2.72
2022-12-22T01:46:41.004Z,2.60
2022-12-22T01:49:41.206Z,2.15
2022-12-22T01:52:29.928Z,1.92
2022-12-22T01:55:21.161Z,2.33
2022-12-22T01:58:07.589Z,1.90
2022-12-22T02:00:53.788Z,2.00
2022-12-22T02:03:41.955Z,2.05
2022-12-22T02:06:33.901Z,2.00
2022-12-22T02:09:29.007Z,2.10
2022-12-22T02:12:29.060Z,2.25
2022-12-22T02:16:07.851Z,2.20
2022-12-22T02:19:04.561Z,2.25
2022-12-22T02:22:07.279Z,2.20
2022-12-22T02:25:09.015Z,2.00
2022-12-22T02:27:58.162Z,1.90
2022-12-22T02:30:45.341Z,2.13
2022-12-22T02:33:32.112Z,1.83
2022-12-22T02:36:33.662Z,2.25
2022-12-22T02:39:38.331Z,1.60
2022-12-22T02:42:53.001Z,2.05
2022-12-22T02:45:53.293Z,1.90
2022-12-22T02:48:51.344Z,2.92
2022-12-22T02:51:43.305Z,2.10
2022-12-22T02:54:30.773Z,2.80
2022-12-22T02:57:17.051Z,2.40
2022-12-22T03:00:02.812Z,2.70
2022-12-22T03:02:49.744Z,2.80
2022-12-22T03:05:35.611Z,2.03
2022-12-22T03:08:21.316Z,3.20
2022-12-22T03:11:07.144Z,3.22
2022-12-22T03:13:53.028Z,2.55
2022-12-22T03:16:38.797Z,2.92
2022-12-22T03:19:24.637Z,2.95
2022-12-22T03:22:10.518Z,3.13
2022-12-22T03:24:56.261Z,4.35
2022-12-22T03:27:23.732Z,3.40
2022-12-22T03:29:51.218Z,3.10
2022-12-22T03:32:18.782Z,3.05
2022-12-22T03:34:46.426Z,3.30
2022-12-22T03:37:13.963Z,2.70
2022-12-22T03:39:41.386Z,3.30
2022-12-22T03:42:31.433Z,3.05
2022-12-22T03:45:17.111Z,3.15
2022-12-22T03:47:44.686Z,2.70
2022-12-22T03:50:12.210Z,3.50
2022-12-22T03:52:39.645Z,3.40
2022-12-22T03:55:07.524Z,3.50
2022-12-22T03:57:35.163Z,3.30
2022-12-22T04:00:02.862Z,2.67
2022-12-22T04:02:39.712Z,2.65
2022-12-22T04:05:07.765Z,2.97
2022-12-22T04:07:35.275Z,2.58
2022-12-22T04:10:21.762Z,3.25
2022-12-22T04:12:55.353Z,2.95
2022-12-22T04:15:33.333Z,2.92
2022-12-22T04:18:01.004Z,2.72
2022-12-22T04:20:29.334Z,2.95
2022-12-22T04:22:57.785Z,2.50
2022-12-22T04:25:26.930Z,3.10
2022-12-22T04:27:54.400Z,2.25
2022-12-22T04:30:21.932Z,2.40
2022-12-22T04:32:49.516Z,2.47
2022-12-22T04:35:17.022Z,1.83
2022-12-22T04:37:44.521Z,2.30
2022-12-22T04:40:12.122Z,2.28
2022-12-22T04:42:40.031Z,2.38
2022-12-22T04:45:08.103Z,2.15
2022-12-22T04:47:35.603Z,2.60
2022-12-22T04:50:03.687Z,1.90
2022-12-22T04:52:31.172Z,2.38
2022-12-22T04:54:58.680Z,2.50
2022-12-22T04:57:26.224Z,2.63
2022-12-22T04:59:53.826Z,2.22
2022-12-22T05:02:22.144Z,2.83
2022-12-22T05:04:49.827Z,2.60
2022-12-22T05:07:17.420Z,2.75
2022-12-22T05:09:44.885Z,2.20
2022-12-22T05:12:31.013Z,2.78
2022-12-22T05:14:58.610Z,2.22
2022-12-22T05:17:26.238Z,2.45
2022-12-22T05:19:53.853Z,2.55
2022-12-22T05:22:21.472Z,2.30
2022-12-22T05:24:49.072Z,2.65
2022-12-22T05:27:16.646Z,2.67
2022-12-22T05:29:44.184Z,2.45
2022-12-22T05:32:11.794Z,2.53
2022-12-22T05:34:39.421Z,2.85
2022-12-22T05:37:07.034Z,2.30
2022-12-22T05:39:34.616Z,2.70
2022-12-22T05:42:02.309Z,2.35
2022-12-22T05:44:29.900Z,2.67
2022-12-22T05:46:57.588Z,2.30
2022-12-22T05:49:25.334Z,2.47
2022-12-22T05:51:56.178Z,2.70
2022-12-22T05:54:23.896Z,3.35
2022-12-22T05:56:51.582Z,2.42
2022-12-22T05:59:22.251Z,2.42
2022-12-22T06:01:52.999Z,2.92
2022-12-22T06:04:21.013Z,2.55
2022-12-22T06:06:49.242Z,2.85
2022-12-22T06:09:17.126Z,2.63
2022-12-22T06:11:48.061Z,2.95
2022-12-22T06:14:15.674Z,3.67
2022-12-22T06:16:43.347Z,3.08
2022-12-22T06:19:10.978Z,2.97
2022-12-22T06:21:41.799Z,2.90
2022-12-22T06:24:09.608Z,3.03
2022-12-22T06:26:37.422Z,3.20
2022-12-22T06:29:08.229Z,3.00
2022-12-22T06:31:36.291Z,2.80
2022-12-22T06:34:04.006Z,3.65
2022-12-22T06:36:31.653Z,2.75
2022-12-22T06:38:59.240Z,2.97
2022-12-22T06:41:47.176Z,2.50
2022-12-22T06:44:16.587Z,2.10
2022-12-22T06:46:44.066Z,2.40
2022-12-22T06:49:11.831Z,2.47
2022-12-22T06:51:42.518Z,2.60
2022-12-22T06:54:10.080Z,2.70
2022-12-22T06:56:40.711Z,2.08
2022-12-22T06:59:08.354Z,2.33
2022-12-22T07:01:36.224Z,2.50
2022-12-22T07:04:04.163Z,2.65
2022-12-22T07:06:34.135Z,2.60
2022-12-22T07:09:01.819Z,2.97
2022-12-22T07:11:45.125Z,2.30
2022-12-22T07:14:12.706Z,1.65
2022-12-22T07:16:40.328Z,2.53
2022-12-22T07:19:07.996Z,2.33
2022-12-22T07:21:35.572Z,2.33
2022-12-22T07:24:03.200Z,2.42
2022-12-22T07:26:31.147Z,2.47
2022-12-22T07:29:00.783Z,2.25
2022-12-22T07:31:28.557Z,2.70
2022-12-22T07:33:56.437Z,2.75
2022-12-22T07:36:34.003Z,2.60
2022-12-22T07:39:09.169Z,2.80
2022-12-22T07:41:55.115Z,2.60
2022-12-22T07:44:22.647Z,3.25
2022-12-22T07:46:50.667Z,3.20
2022-12-22T07:49:50.964Z,2.63
2022-12-22T07:52:18.554Z,2.70
2022-12-22T07:54:46.247Z,2.47
2022-12-22T07:57:13.950Z,1.90
2022-12-22T07:59:43.975Z,2.17
2022-12-22T08:02:13.104Z,1.58
2022-12-22T08:04:43.580Z,2.42
2022-12-22T08:07:11.464Z,2.95
2022-12-22T08:09:44.442Z,1.48
2022-12-22T08:12:12.133Z,2.08
2022-12-22T08:14:39.868Z,1.70
2022-12-22T08:17:07.505Z,2.13
2022-12-22T08:19:35.231Z,1.90
2022-12-22T08:22:05.366Z,2.00
2022-12-22T08:24:33.103Z,2.03
2022-12-22T08:27:06.569Z,1.85
2022-12-22T08:29:43.042Z,2.55
2022-12-22T08:32:11.827Z,3.33
2022-12-22T08:34:39.950Z,1.77
2022-12-22T08:37:13.703Z,4.15
2022-12-22T08:39:45.049Z,3.55
2022-12-22T08:42:15.130Z,3.85
2022-12-22T08:44:46.379Z,3.90
2022-12-22T08:47:17.059Z,2.15
2022-12-22T08:49:45.326Z,1.73
2022-12-22T08:52:18.430Z,2.33
2022-12-22T08:54:47.146Z,1.33
2022-12-22T08:57:14.969Z,1.48
2022-12-22T08:59:42.784Z,1.25
2022-12-22T09:02:10.719Z,1.13
2022-12-22T09:04:38.583Z,2.13
2022-12-22T09:07:09.809Z,1.73
2022-12-22T09:09:37.667Z,1.33
2022-12-22T09:12:05.893Z,2.70
2022-12-22T09:14:34.069Z,1.60
2022-12-22T09:17:01.962Z,1.45
2022-12-22T09:19:29.802Z,2.28
2022-12-22T09:21:57.835Z,1.30
2022-12-22T09:24:25.854Z,1.08
2022-12-22T09:26:53.624Z,2.55
2022-12-22T09:29:21.387Z,2.30
2022-12-22T09:31:49.374Z,1.52
2022-12-22T09:34:18.632Z,1.20
2022-12-22T09:36:47.684Z,1.80
2022-12-22T09:39:16.801Z,1.55
2022-12-22T09:41:51.570Z,2.30
2022-12-22T09:44:27.024Z,1.45
2022-12-22T09:46:57.821Z,2.35
2022-12-22T09:49:26.072Z,2.08
2022-12-22T09:51:58.618Z,1.40
2022-12-22T09:54:27.545Z,1.48
2022-12-22T09:56:56.141Z,1.42
2022-12-22T09:59:28.383Z,2.70
2022-12-22T10:02:27.735Z,1.20
2022-12-22T10:05:12.785Z,2.10
2022-12-22T10:07:42.592Z,1.88
2022-12-22T10:10:25.600Z,2.47
2022-12-22T10:12:56.555Z,1.63
2022-12-22T10:15:25.206Z,2.10
2022-12-22T10:17:55.061Z,1.88
2022-12-22T10:20:28.133Z,1.23
2022-12-22T10:23:00.444Z,1.58
2022-12-22T10:26:26.410Z,1.40
2022-12-22T10:28:45.135Z,2.35
2022-12-22T10:31:27.392Z,1.80
2022-12-22T10:33:57.887Z,1.85
2022-12-22T10:36:28.547Z,1.38
2022-12-22T10:39:02.640Z,1.40
2022-12-22T10:41:37.041Z,1.73
2022-12-22T10:44:19.645Z,2.25
2022-12-22T10:46:56.036Z,1.38
2022-12-22T10:49:27.516Z,1.95
2022-12-22T10:52:15.546Z,2.13
2022-12-22T10:54:45.307Z,3.17
2022-12-22T10:57:16.965Z,1.98
2022-12-22T11:00:14.653Z,1.33
2022-12-22T11:02:52.222Z,2.10
2022-12-22T11:05:20.772Z,1.05
2022-12-22T11:07:48.694Z,1.35
2022-12-22T11:10:53.619Z,1.50
2022-12-22T11:13:38.594Z,1.33
2022-12-22T11:16:39.331Z,1.58
2022-12-22T11:19:43.069Z,1.48
2022-12-22T11:22:21.674Z,1.27
2022-12-22T11:25:13.183Z,1.27
2022-12-22T11:27:47.203Z,1.30
2022-12-22T11:30:20.922Z,1.42
2022-12-22T11:35:28.002Z,1.50
2022-12-22T11:38:12.745Z,0.88
2022-12-22T11:40:47.347Z,1.83
2022-12-22T11:43:40.191Z,1.30
2022-12-22T11:49:18.692Z,1.38
2022-12-22T11:52:21.344Z,1.10
2022-12-22T11:55:01.254Z,1.08
2022-12-22T11:57:43.033Z,0.70
2022-12-22T12:00:14.388Z,1.55
2022-12-22T12:02:57.219Z,1.85
2022-12-22T12:05:39.288Z,1.38
2022-12-22T12:08:06.792Z,2.28
2022-12-22T12:11:18.471Z,2.40
2022-12-22T12:14:20.440Z,2.30
2022-12-22T12:17:24.773Z,2.20
2022-12-22T12:20:12.085Z,2.30
2022-12-22T12:23:02.691Z,2.67
2022-12-22T12:25:30.208Z,2.45
2022-12-22T12:28:06.918Z,1.55
2022-12-22T12:30:45.557Z,1.40
2022-12-22T12:33:44.973Z,2.25
2022-12-22T12:36:15.274Z,0.50
2022-12-22T12:39:08.490Z,2.85
2022-12-22T12:41:55.155Z,1.95
2022-12-22T12:44:29.215Z,4.57
2022-12-22T12:47:05.896Z,2.53
2022-12-22T12:49:36.595Z,1.58
2022-12-22T12:52:04.810Z,0.95
2022-12-22T12:54:39.795Z,0.88
2022-12-22T12:57:26.061Z,1.90
2022-12-22T12:59:59.034Z,2.50
2022-12-22T13:02:32.661Z,1.80
2022-12-22T13:08:05.699Z,1.88
2022-12-22T13:10:41.086Z,1.50
2022-12-22T13:13:14.237Z,2.17
2022-12-22T13:15:45.375Z,2.25
2022-12-22T13:18:16.291Z,2.45
2022-12-22T13:20:45.446Z,1.48
2022-12-22T13:23:15.593Z,2.03
2022-12-22T13:25:53.415Z,1.42
2022-12-22T13:28:23.501Z,1.30
2022-12-22T13:30:58.388Z,1.67
2022-12-22T13:33:30.838Z,4.75
2022-12-22T13:35:59.679Z,2.00
2022-12-22T13:38:31.348Z,2.15
2022-12-22T13:41:02.959Z,2.45
2022-12-22T13:43:33.304Z,2.08
2022-12-22T13:46:03.175Z,3.00
2022-12-22T13:48:39.995Z,2.70
2022-12-22T13:51:27.796Z,1.67
2022-12-22T13:54:08.302Z,1.98
2022-12-22T13:56:48.663Z,2.33
2022-12-22T13:59:42.624Z,2.95
2022-12-22T14:02:10.223Z,1.30
2022-12-22T14:04:40.528Z,1.48
2022-12-22T14:07:26.179Z,1.45
2022-12-22T14:09:56.934Z,1.55
2022-12-22T14:12:32.104Z,1.20
2022-12-22T14:15:03.558Z,1.88
2022-12-22T14:17:37.011Z,1.48
2022-12-22T14:20:27.381Z,1.17
2022-12-22T14:23:01.958Z,1.70
2022-12-22T14:25:36.649Z,2.10
2022-12-22T14:28:07.075Z,1.55
2022-12-22T14:30:42.453Z,1.52
2022-12-22T14:33:28.100Z,0.95
2022-12-22T14:36:23.649Z,1.10
2022-12-22T14:38:54.040Z,1.25
2022-12-22T14:41:42.294Z,1.55
2022-12-22T14:44:18.690Z,1.40
2022-12-22T14:47:02.918Z,1.35
2022-12-22T14:49:30.657Z,1.30
2022-12-22T14:52:08.524Z,0.77
2022-12-22T14:54:36.209Z,1.25
2022-12-22T14:57:16.387Z,0.95
2022-12-22T14:59:59.432Z,1.77
2022-12-22T15:02:40.631Z,1.30
2022-12-22T15:05:33.567Z,1.35
2022-12-22T15:08:07.422Z,0.93
2022-12-22T15:10:46.372Z,1.77
2022-12-22T15:13:27.745Z,1.73
2022-12-22T15:15:55.432Z,0.85
2022-12-22T15:18:27.826Z,1.13
2022-12-22T15:20:56.921Z,1.45
2022-12-22T15:23:24.597Z,0.90
2022-12-22T15:25:52.435Z,2.20
2022-12-22T15:28:20.000Z,0.80
2022-12-22T15:30:47.696Z,1.77
2022-12-22T15:33:18.193Z,1.70
2022-12-22T15:35:46.777Z,1.60
2022-12-22T15:38:23.090Z,1.85
2022-12-22T15:40:51.147Z,1.20
2022-12-22T15:46:07.660Z,1.08
2022-12-22T15:48:38.620Z,1.67
2022-12-22T15:51:09.376Z,1.25
2022-12-22T15:53:37.569Z,0.82
2022-12-22T15:56:05.361Z,1.00
2022-12-22T15:58:36.832Z,1.30
2022-12-22T16:01:04.694Z,1.55
2022-12-22T16:03:32.392Z,1.75
2022-12-22T16:06:01.036Z,2.15
2022-12-22T16:08:33.402Z,1.85
2022-12-22T16:11:02.045Z,1.52
2022-12-22T16:13:30.082Z,2.33
2022-12-22T16:15:58.706Z,2.20
2022-12-22T16:18:26.479Z,2.30
2022-12-22T16:20:54.790Z,2.78
2022-12-22T16:23:27.620Z,1.50
2022-12-22T16:26:02.067Z,3.03
2022-12-22T16:28:30.694Z,1.77
2022-12-22T16:30:58.611Z,2.30
2022-12-22T16:33:26.386Z,1.20
2022-12-22T16:35:54.190Z,1.60
2022-12-22T16:38:22.620Z,1.13
2022-12-22T16:40:54.050Z,1.48
2022-12-22T16:46:24.223Z,1.55
2022-12-22T16:48:56.282Z,1.25
2022-12-22T16:51:37.560Z,1.85
2022-12-22T16:54:05.173Z,1.48
2022-12-22T16:56:33.276Z,1.27
2022-12-22T16:59:03.261Z,0.80
2022-12-22T17:01:44.269Z,1.17
2022-12-22T17:04:20.680Z,1.75
2022-12-22T17:06:53.584Z,1.35
2022-12-22T17:09:33.098Z,1.30
2022-12-22T17:12:03.656Z,1.58
2022-12-22T17:14:42.568Z,1.23
2022-12-22T17:17:16.806Z,2.50
2022-12-22T17:19:45.358Z,1.50
2022-12-22T17:22:31.323Z,1.55
2022-12-22T17:25:02.539Z,1.38
2022-12-22T17:27:33.247Z,1.63
2022-12-22T17:30:03.927Z,1.52
2022-12-22T17:32:31.890Z,1.10
2022-12-22T17:34:59.438Z,1.50
2022-12-22T17:37:26.963Z,1.58
2022-12-22T17:40:01.035Z,1.25
2022-12-22T17:42:31.820Z,1.40
2022-12-22T17:44:59.500Z,1.00
2022-12-22T17:47:33.408Z,1.20
2022-12-22T17:50:02.496Z,2.03
2022-12-22T17:52:31.322Z,2.20
2022-12-22T17:54:59.288Z,1.00
2022-12-22T17:57:31.411Z,1.20
2022-12-22T17:59:59.084Z,1.17
2022-12-22T18:02:27.193Z,1.65
2022-12-22T18:04:54.903Z,1.45
2022-12-22T18:07:24.819Z,1.65
2022-12-22T18:09:58.016Z,1.63
2022-12-22T18:12:26.224Z,1.27
2022-12-22T18:14:53.862Z,1.65
2022-12-22T18:17:35.811Z,2.40
2022-12-22T18:20:04.204Z,5.55
2022-12-22T18:22:31.733Z,3.55
2022-12-22T18:24:59.209Z,3.42
2022-12-22T18:27:26.704Z,2.42
2022-12-22T18:29:54.182Z,4.35
2022-12-22T18:32:27.414Z,3.92
2022-12-22T18:34:55.590Z,6.25
2022-12-22T18:37:23.193Z,4.30
2022-12-22T18:39:50.701Z,2.88
2022-12-22T18:42:26.567Z,2.13
2022-12-22T18:44:54.153Z,3.22
2022-12-22T18:47:21.737Z,2.35
2022-12-22T18:49:49.364Z,3.13
2022-12-22T18:52:22.726Z,3.30
2022-12-22T18:54:50.350Z,2.72
2022-12-22T18:57:20.201Z,2.83
2022-12-22T18:59:50.983Z,2.65
2022-12-22T19:02:28.769Z,2.03
2022-12-22T19:04:57.358Z,3.10
2022-12-22T19:07:29.797Z,3.30
2022-12-22T19:10:09.751Z,3.65
2022-12-22T19:12:37.337Z,2.83
2022-12-22T19:15:06.581Z,2.80
2022-12-22T19:17:34.431Z,3.00
2022-12-22T19:20:01.887Z,2.47
2022-12-22T19:22:31.284Z,2.00
2022-12-22T19:24:59.268Z,2.80
2022-12-22T19:27:28.185Z,1.90
2022-12-22T19:30:03.640Z,2.40
2022-12-22T19:32:42.208Z,2.33
2022-12-22T19:35:21.211Z,2.90
2022-12-22T19:37:50.748Z,2.40
2022-12-22T19:40:20.631Z,2.15
2022-12-22T19:42:50.610Z,1.80
2022-12-22T19:45:27.192Z,2.47
2022-12-22T19:47:57.385Z,2.00
2022-12-22T19:50:27.356Z,2.75
2022-12-22T19:52:56.631Z,2.47
2022-12-22T19:55:44.664Z,2.10
2022-12-22T19:58:39.830Z,2.45
2022-12-22T20:01:26.617Z,2.90
2022-12-22T20:04:12.954Z,2.95
2022-12-22T20:06:40.435Z,2.88
2022-12-22T20:09:07.880Z,1.85
2022-12-22T20:11:35.446Z,2.17
2022-12-22T20:14:03.104Z,2.30
2022-12-22T20:16:30.609Z,2.38
2022-12-22T20:18:58.103Z,2.53
2022-12-22T20:21:29.715Z,3.03
2022-12-22T20:23:59.889Z,2.08
2022-12-22T20:26:28.140Z,3.25
2022-12-22T20:28:55.621Z,2.42
2022-12-22T20:31:24.585Z,2.20
2022-12-22T20:33:55.207Z,2.78
2022-12-22T20:36:26.640Z,2.55
2022-12-22T20:38:55.878Z,2.53
2022-12-22T20:41:24.198Z,3.33
2022-12-22T20:43:53.702Z,2.42
2022-12-22T20:46:27.897Z,2.40
2022-12-22T20:48:59.400Z,2.47
2022-12-22T20:51:30.730Z,2.60
2022-12-22T20:53:58.780Z,2.25
2022-12-22T20:56:26.146Z,2.00
2022-12-22T20:58:54.552Z,1.92
2022-12-22T21:01:23.201Z,2.38
2022-12-22T21:03:51.137Z,2.80
2022-12-22T21:06:29.510Z,2.38
2022-12-22T21:08:59.281Z,2.60
2022-12-22T21:11:28.415Z,2.80
2022-12-22T21:13:56.741Z,2.97
2022-12-22T21:16:27.037Z,3.55
2022-12-22T21:18:55.074Z,2.70
2022-12-22T21:21:23.087Z,2.88
2022-12-22T21:23:51.690Z,2.95
2022-12-22T21:26:21.956Z,2.13
2022-12-22T21:28:50.240Z,2.70
2022-12-22T21:31:17.912Z,3.00
2022-12-22T21:33:45.829Z,2.47
2022-12-22T21:36:21.018Z,2.88
2022-12-22T21:38:49.900Z,2.90
2022-12-22T21:41:17.328Z,2.92
2022-12-22T21:43:44.895Z,2.75
2022-12-22T21:46:13.782Z,2.10
2022-12-22T21:48:41.427Z,2.70
2022-12-22T21:51:12.342Z,2.00
2022-12-22T21:53:39.772Z,2.30
2022-12-22T21:56:17.954Z,2.30
2022-12-22T21:58:45.841Z,2.47
2022-12-22T22:01:16.383Z,2.05
2022-12-22T22:03:44.039Z,2.58
2022-12-22T22:06:11.849Z,2.60
2022-12-22T22:08:39.335Z,2.45
2022-12-22T22:11:17.490Z,1.95
2022-12-22T22:13:45.168Z,2.30
2022-12-22T22:16:12.986Z,1.98
2022-12-22T22:18:42.197Z,2.78
2022-12-22T22:21:11.696Z,2.72
2022-12-22T22:23:40.001Z,2.42
2022-12-22T22:26:08.233Z,2.20
2022-12-22T22:28:36.175Z,2.67
2022-12-22T22:31:10.515Z,2.00
2022-12-22T22:33:38.331Z,2.45
2022-12-22T22:36:09.191Z,2.30
2022-12-22T22:38:36.888Z,3.20
2022-12-22T22:41:04.699Z,2.30
2022-12-22T22:43:32.222Z,2.00
2022-12-22T22:45:59.665Z,1.98
2022-12-22T22:48:27.202Z,1.95
2022-12-22T22:50:54.778Z,2.42
2022-12-22T22:53:22.274Z,2.03
2022-12-22T22:55:49.727Z,2.88
2022-12-22T22:58:17.339Z,1.98
2022-12-22T23:00:44.894Z,3.08
2022-12-22T23:03:12.606Z,2.65
2022-12-22T23:05:40.166Z,2.35
2022-12-22T23:08:07.750Z,2.78
2022-12-22T23:10:41.397Z,2.40
2022-12-22T23:13:09.814Z,2.67
2022-12-22T23:15:37.548Z,2.40
2022-12-22T23:18:05.235Z,2.80
2022-12-22T23:20:32.694Z,3.03
2022-12-22T23:23:00.289Z,2.45
2022-12-22T23:25:28.098Z,2.30
2022-12-22T23:27:55.606Z,3.15
2022-12-22T23:30:23.177Z,2.58
2022-12-22T23:32:50.657Z,2.25
2022-12-22T23:35:18.076Z,2.90
2022-12-22T23:37:45.615Z,2.75
2022-12-22T23:43:01.478Z,2.28
2022-12-22T23:45:29.839Z,2.88
2022-12-22T23:47:57.491Z,2.90
2022-12-22T23:50:25.674Z,2.55
2022-12-22T23:52:54.371Z,3.05
2022-12-22T23:55:21.922Z,1.92
2022-12-22T23:57:54.060Z,2.65
